• Join FlightAware (Why Join?)
  • Login
  • US Flag 
05:05AM EDT


 

Airport Tracker/Info


-or-


 

Live Flight TrackerFlight Track Log ✈ TSU191 ✈ 09-May-2013 ✈ KHKY - KTOL

Flight Track Log - Related Links

Times and Time Zones

All times are in EDT time to prevent confusion due to time zone crossing. See the TSU191 flight status page for this flight to view local times or setup timezone preferences in your user account.

Time Position Orientation Groundspeed Altitude Reporting Facility
EDT Latitude Longitude Course Direction KTS MPH feet Rate Location/Type
07:43PM 35.7264 -81.4475 340° North 258 297 2,800  Level Atlanta Center
07:44PM 35.7750 -81.4742 336° Northwest 146 168 4,700 1,680 Climbing Atlanta Center
07:45PM 35.8294 -81.4953 343° North 171 197 6,200 1,680 Climbing Atlanta Center
07:46PM 35.8783 -81.5297 330° Northwest 198 228 8,100 1,800 Climbing Atlanta Center
07:47PM 36.1034 -81.5167 North  Level FlightAware Approximate
07:47PM 35.9311 -81.5614 334° Northwest 198 228 9,900  Level Atlanta Center
07:48PM 36.1648 -81.5380 340° North  Level FlightAware Approximate
07:48PM 35.9856 -81.5803 344° North 203 234 11,200  Level Atlanta Center
07:49PM 36.0425 -81.6017 343° North 203 234 12,600 1,200 Climbing Atlanta Center
07:50PM 36.1011 -81.6231 344° North 213 245 13,700 1,080 Climbing Atlanta Center
07:51PM 36.1622 -81.6419 346° North 220 253 14,800 1,020 Climbing Atlanta Center
07:52PM 36.2208 -81.6633 344° North 225 259 15,800 960 Climbing Atlanta Center
07:53PM 36.2817 -81.6847 344° North 225 259 16,800 960 Climbing Atlanta Center
07:54PM 36.3406 -81.7061 344° North 225 259 17,800 960 Climbing Atlanta Center
07:55PM 36.4014 -81.7275 344° North 225 259 18,800 840 Climbing Atlanta Center
07:56PM 36.4542 -81.7492 342° North 225 259 19,500 840 Climbing Atlanta Center
07:57PM 36.5150 -81.7681 346° North 225 259 20,500 900 Climbing Atlanta Center
07:58PM 36.5736 -81.7925 341° North 219 252 21,400 780 Climbing Atlanta Center
07:59PM 36.6325 -81.8114 346° North 219 252 22,100 360 Climbing Atlanta Center
08:00PM 36.6953 -81.8303 346° North 230 265 22,200  Climbing Atlanta Center
08:01PM 36.7667 -81.8569 343° North 249 287 22,200 -60 Level Atlanta Center
08:03PM 36.9242 -81.9178 343° North 275 316 22,100 -120 Descending Indianapolis Center
08:04PM 36.9964 -81.9458 343° North 273 314 22,000  Descending Indianapolis Center
08:05PM 37.0683 -81.9731 343° North 270 311 22,100  Climbing Indianapolis Center
08:06PM 37.1414 -81.9981 345° North 272 313 22,100  Level Indianapolis Center
08:07PM 37.2144 -82.0206 346° North 271 312 22,100  Level Indianapolis Center
08:08PM 37.2986 -82.0494 345° North 270 311 22,100  Level Indianapolis Center
08:09PM 37.3717 -82.0764 344° North 272 313 22,100  Level Indianapolis Center
08:10PM 37.4436 -82.1042 343° North 271 312 22,200  Climbing Indianapolis Center
08:11PM 37.5175 -82.1308 344° North 274 315 22,200  Level Indianapolis Center
08:12PM 37.5906 -82.1586 343° North 274 315 22,200 -60 Level Indianapolis Center
08:13PM 37.6642 -82.1814 346° North 273 314 22,100 -60 Descending Indianapolis Center
08:14PM 37.7400 -82.1908 354° North 275 316 22,100  Level Indianapolis Center
08:15PM 37.8178 -82.1969 356° North 279 321 22,200  Climbing Indianapolis Center
08:16PM 37.9078 -82.2097 354° North 280 322 22,200  Level Indianapolis Center
08:17PM 37.9850 -82.2200 354° North 279 321 22,200  Level Indianapolis Center
08:19PM 38.0581 -82.2464 344° North 274 315 22,200  Level Indianapolis Center
08:20PM 38.1308 -82.2728 344° North 274 315 22,200  Level Indianapolis Center
08:21PM 38.2047 -82.2997 344° North 275 316 22,200  Level Indianapolis Center
08:22PM 38.2775 -82.3292 342° North 274 315 22,200 -60 Level Indianapolis Center
08:23PM 38.3506 -82.3575 343° North 273 314 22,100  Descending Indianapolis Center
08:24PM 38.4256 -82.3828 345° North 275 316 22,200  Climbing Indianapolis Center
08:25PM 38.5000 -82.4078 345° North 276 318 22,200  Level Indianapolis Center
08:26PM 38.5728 -82.4411 340° North 277 319 22,200  Level Indianapolis Center
08:27PM 38.6447 -82.4728 341° North 273 314 22,200  Level Indianapolis Center
08:28PM 38.7342 -82.5069 343° North 277 319 22,200 -60 Level Indianapolis Center
08:29PM 38.8086 -82.5350 344° North 277 319 22,100  Descending Indianapolis Center
08:30PM 38.8839 -82.5625 344° North 280 322 22,200  Climbing Indianapolis Center
08:31PM 38.9583 -82.5919 343° North 279 321 22,200  Level Indianapolis Center
08:32PM 39.0339 -82.6200 344° North 282 325 22,200  Level Indianapolis Center
08:33PM 39.1100 -82.6467 345° North 283 326 22,200  Level Indianapolis Center
08:34PM 39.1864 -82.6767 343° North 282 325 22,200 -60 Level Indianapolis Center
08:35PM 39.2633 -82.7036 345° North 284 327 22,100 -60 Descending Indianapolis Center
08:36PM 39.3353 -82.7358 341° North 274 315 22,100  Level Indianapolis Center
08:37PM 39.4086 -82.7683 341° North 275 316 22,200  Climbing Indianapolis Center
08:38PM 39.4942 -82.8039 342° North 275 316 22,200 -60 Level Indianapolis Center
08:39PM 39.5667 -82.8358 341° North 275 316 22,100 -60 Descending Indianapolis Center
08:40PM 39.6403 -82.8672 342° North 276 318 22,100  Level Indianapolis Center
08:41PM 39.7136 -82.9011 340° North 276 318 22,100  Level Indianapolis Center
08:42PM 39.7878 -82.9308 343° North 278 320 22,100  Level Indianapolis Center
08:43PM 39.8633 -82.9578 345° North 280 322 22,100  Level Indianapolis Center
08:44PM 39.9375 -82.9903 341° North 279 321 22,200  Climbing Indianapolis Center
08:45PM 40.0133 -83.0194 344° North 282 325 22,200 -60 Level Indianapolis Center
08:46PM 40.0875 -83.0542 340° North 283 326 22,100 -60 Descending Indianapolis Center
08:47PM 40.1614 -83.0883 341° North 281 323 22,100 -660 Level Indianapolis Center
08:48PM 40.2511 -83.1322 340° North 291 335 20,800 -1,020 Descending Indianapolis Center
08:49PM 40.3303 -83.1683 341° North 298 343 20,100 -360 Descending Indianapolis Center
08:50PM 40.4083 -83.1981 344° North 291 335 20,100  Level Indianapolis Center
08:51PM 40.4867 -83.2308 342° North 293 337 20,100  Level Indianapolis Center
08:52PM 40.5647 -83.2633 342° North 291 335 20,100 -660 Level Indianapolis Center
08:53PM 40.6439 -83.2953 343° North 296 341 18,800 -1,320 Descending Indianapolis Center
08:54PM 40.6847 -83.3158 339° North 293 337 18,100 -1,380 Descending Cleveland Center
08:55PM 40.7675 -83.3467 344° North 301 346 16,700 -1,440 Descending Cleveland Center
08:56PM 40.8436 -83.3856 339° North 301 346 15,300 -1,500 Descending Cleveland Center
08:57PM 40.9261 -83.4219 342° North 296 341 13,700 -1,560 Descending Cleveland Center
08:58PM 41.0067 -83.4531 344° North 290 334 12,200 -1,680 Descending Cleveland Center
08:59PM 41.0808 -83.4839 343° North 284 327 10,400 -1,140 Descending Cleveland Center
09:00PM 41.1447 -83.5169 339° North 279 321 10,000 -1,140 Descending Cleveland Center
09:01PM 41.2189 -83.5481 342° North 279 321 8,200 -1,800 Descending Cleveland Center
09:02PM 41.2911 -83.5844 339° North 279 321 6,400 -1,800 Descending Cleveland Center
09:03PM 41.3653 -83.6100 346° North 273 314 4,700 -1,740 Descending Cleveland Center
09:05PM 41.4706 -83.6539 323° Northwest  Level FlightAware Approximate
09:12PM 41.5833 -83.8000 323° Northwest  Level FlightAware Approximate
09:13PM 41.5868 -83.8078 323° Northwest  Level Estimated
09:14PM 41.5833 -83.8000 323° Northwest  Level FlightAware Approximate
09:15PM 41.5868 -83.8078 323° Northwest  Level Estimated
09:16PM 41.5833 -83.8000 323° Northwest  Level FlightAware Approximate